sensor_id;sensor_type;location;lat;lon;timestamp;temperature;humidity
42885;DHT22;28534;48.100;11.584;2023-11-19T00:00:29;21.00;65.00
42885;DHT22;28534;48.100;11.584;2023-11-19T00:01:30;21.10;64.80
42885;DHT22;28534;48.100;11.584;2023-11-19T00:02:31;20.90;64.70
42885;DHT22;28534;48.100;11.584;2023-11-19T00:03:31;20.90;64.80
42885;DHT22;28534;48.100;11.584;2023-11-19T00:04:36;21.00;64.80
42885;DHT22;28534;48.100;11.584;2023-11-19T00:05:36;21.00;64.80
42885;DHT22;28534;48.100;11.584;2023-11-19T00:06:39;20.90;64.70
42885;DHT22;28534;48.100;11.584;2023-11-19T00:07:40;20.90;64.70
42885;DHT22;28534;48.100;11.584;2023-11-19T00:08:41;21.00;64.70
42885;DHT22;28534;48.100;11.584;2023-11-19T00:09:43;20.90;64.70
42885;DHT22;28534;48.100;11.584;2023-11-19T00:10:44;20.90;64.80
42885;DHT22;28534;48.100;11.584;2023-11-19T00:11:46;20.90;64.70
42885;DHT22;28534;48.100;11.584;2023-11-19T00:12:48;20.90;64.70
42885;DHT22;28534;48.100;11.584;2023-11-19T00:13:49;20.90;64.70
42885;DHT22;28534;48.100;11.584;2023-11-19T00:14:50;20.90;64.60
42885;DHT22;28534;48.100;11.584;2023-11-19T00:15:53;21.00;64.50
42885;DHT22;28534;48.100;11.584;2023-11-19T00:16:53;21.00;64.50
42885;DHT22;28534;48.100;11.584;2023-11-19T00:17:55;21.00;64.60
42885;DHT22;28534;48.100;11.584;2023-11-19T00:18:56;21.00;64.50
42885;DHT22;28534;48.100;11.584;2023-11-19T00:19:57;21.00;64.40
42885;DHT22;28534;48.100;11.584;2023-11-19T00:20:58;21.00;64.40
42885;DHT22;28534;48.100;11.584;2023-11-19T00:22:01;21.00;64.50
42885;DHT22;28534;48.100;11.584;2023-11-19T00:23:03;20.90;64.50
42885;DHT22;28534;48.100;11.584;2023-11-19T00:24:04;21.00;64.50
42885;DHT22;28534;48.100;11.584;2023-11-19T00:25:06;21.00;64.50
42885;DHT22;28534;48.100;11.584;2023-11-19T00:26:06;21.00;64.40
42885;DHT22;28534;48.100;11.584;2023-11-19T00:27:08;21.00;64.50
42885;DHT22;28534;48.100;11.584;2023-11-19T00:28:09;21.00;64.40
42885;DHT22;28534;48.100;11.584;2023-11-19T00:29:10;21.00;64.40
42885;DHT22;28534;48.100;11.584;2023-11-19T00:30:11;21.00;64.40
42885;DHT22;28534;48.100;11.584;2023-11-19T00:31:12;20.90;64.40
42885;DHT22;28534;48.100;11.584;2023-11-19T00:32:13;20.90;64.40
42885;DHT22;28534;48.100;11.584;2023-11-19T00:33:15;20.90;64.50
42885;DHT22;28534;48.100;11.584;2023-11-19T00:34:17;20.90;64.40
42885;DHT22;28534;48.100;11.584;2023-11-19T00:35:21;20.90;64.40
42885;DHT22;28534;48.100;11.584;2023-11-19T00:36:23;20.90;64.50
42885;DHT22;28534;48.100;11.584;2023-11-19T00:37:25;21.00;64.50
42885;DHT22;28534;48.100;11.584;2023-11-19T00:38:27;20.90;64.20
42885;DHT22;28534;48.100;11.584;2023-11-19T00:39:27;20.90;64.40
42885;DHT22;28534;48.100;11.584;2023-11-19T00:40:29;20.90;64.50
42885;DHT22;28534;48.100;11.584;2023-11-19T00:41:30;20.90;64.40
42885;DHT22;28534;48.100;11.584;2023-11-19T00:42:31;20.90;64.40
42885;DHT22;28534;48.100;11.584;2023-11-19T00:43:32;21.00;64.40
42885;DHT22;28534;48.100;11.584;2023-11-19T00:44:33;20.90;64.40
42885;DHT22;28534;48.100;11.584;2023-11-19T00:45:34;20.90;64.40
42885;DHT22;28534;48.100;11.584;2023-11-19T00:46:35;20.90;64.40
42885;DHT22;28534;48.100;11.584;2023-11-19T00:47:37;20.90;64.50
42885;DHT22;28534;48.100;11.584;2023-11-19T00:48:38;20.90;64.40
42885;DHT22;28534;48.100;11.584;2023-11-19T00:49:39;20.90;64.40
42885;DHT22;28534;48.100;11.584;2023-11-19T00:50:41;20.90;64.50
42885;DHT22;28534;48.100;11.584;2023-11-19T00:51:44;20.90;64.40
42885;DHT22;28534;48.100;11.584;2023-11-19T00:52:47;20.90;64.40
42885;DHT22;28534;48.100;11.584;2023-11-19T00:53:48;20.90;64.20
42885;DHT22;28534;48.100;11.584;2023-11-19T00:54:49;20.90;64.30
42885;DHT22;28534;48.100;11.584;2023-11-19T00:55:50;20.90;64.30
42885;DHT22;28534;48.100;11.584;2023-11-19T00:56:52;20.90;64.40
42885;DHT22;28534;48.100;11.584;2023-11-19T00:57:52;20.90;64.40
42885;DHT22;28534;48.100;11.584;2023-11-19T00:58:56;20.90;64.40
42885;DHT22;28534;48.100;11.584;2023-11-19T00:59:57;20.90;64.40
42885;DHT22;28534;48.100;11.584;2023-11-19T01:00:59;20.90;64.40
42885;DHT22;28534;48.100;11.584;2023-11-19T01:02:00;20.90;64.50
42885;DHT22;28534;48.100;11.584;2023-11-19T01:03:03;20.90;64.40
42885;DHT22;28534;48.100;11.584;2023-11-19T01:04:04;20.90;64.40
42885;DHT22;28534;48.100;11.584;2023-11-19T01:05:07;20.90;64.20
42885;DHT22;28534;48.100;11.584;2023-11-19T01:06:08;20.90;64.20
42885;DHT22;28534;48.100;11.584;2023-11-19T01:07:10;20.90;64.30
42885;DHT22;28534;48.100;11.584;2023-11-19T01:08:14;21.00;64.30
42885;DHT22;28534;48.100;11.584;2023-11-19T01:09:16;21.00;64.30
42885;DHT22;28534;48.100;11.584;2023-11-19T01:10:16;20.90;64.20
42885;DHT22;28534;48.100;11.584;2023-11-19T01:11:19;20.90;64.20
42885;DHT22;28534;48.100;11.584;2023-11-19T01:12:21;20.90;64.20
42885;DHT22;28534;48.100;11.584;2023-11-19T01:13:22;20.90;64.20
42885;DHT22;28534;48.100;11.584;2023-11-19T01:14:23;20.90;64.20
42885;DHT22;28534;48.100;11.584;2023-11-19T01:15:25;20.90;64.20
42885;DHT22;28534;48.100;11.584;2023-11-19T01:16:26;20.90;64.20
42885;DHT22;28534;48.100;11.584;2023-11-19T01:17:27;20.90;64.20
42885;DHT22;28534;48.100;11.584;2023-11-19T01:18:28;20.90;64.20
42885;DHT22;28534;48.100;11.584;2023-11-19T01:19:29;20.90;64.20
42885;DHT22;28534;48.100;11.584;2023-11-19T01:20:31;20.90;64.20
42885;DHT22;28534;48.100;11.584;2023-11-19T01:21:31;20.90;64.20
42885;DHT22;28534;48.100;11.584;2023-11-19T01:22:33;20.90;64.20
42885;DHT22;28534;48.100;11.584;2023-11-19T01:23:35;20.90;64.30
42885;DHT22;28534;48.100;11.584;2023-11-19T01:24:37;20.90;64.20
42885;DHT22;28534;48.100;11.584;2023-11-19T01:25:38;20.90;64.20
42885;DHT22;28534;48.100;11.584;2023-11-19T01:26:39;20.90;64.20
42885;DHT22;28534;48.100;11.584;2023-11-19T01:27:45;20.90;64.30
42885;DHT22;28534;48.100;11.584;2023-11-19T01:28:46;20.90;64.20
42885;DHT22;28534;48.100;11.584;2023-11-19T01:29:48;20.80;64.20
42885;DHT22;28534;48.100;11.584;2023-11-19T01:30:50;20.90;64.40
42885;DHT22;28534;48.100;11.584;2023-11-19T01:31:51;20.90;64.30
42885;DHT22;28534;48.100;11.584;2023-11-19T01:32:53;20.90;64.20
42885;DHT22;28534;48.100;11.584;2023-11-19T01:33:53;20.90;64.20
42885;DHT22;28534;48.100;11.584;2023-11-19T01:34:55;20.90;64.20
42885;DHT22;28534;48.100;11.584;2023-11-19T01:35:55;20.90;64.20
42885;DHT22;28534;48.100;11.584;2023-11-19T01:36:59;20.90;64.20
42885;DHT22;28534;48.100;11.584;2023-11-19T01:37:59;20.90;64.20
42885;DHT22;28534;48.100;11.584;2023-11-19T01:39:02;20.90;64.20
42885;DHT22;28534;48.100;11.584;2023-11-19T01:40:04;20.90;64.20
42885;DHT22;28534;48.100;11.584;2023-11-19T01:41:08;20.80;64.10
42885;DHT22;28534;48.100;11.584;2023-11-19T01:42:09;20.90;64.20
42885;DHT22;28534;48.100;11.584;2023-11-19T01:43:12;20.90;64.30
42885;DHT22;28534;48.100;11.584;2023-11-19T01:44:14;20.90;64.30
42885;DHT22;28534;48.100;11.584;2023-11-19T01:45:21;20.90;64.20
42885;DHT22;28534;48.100;11.584;2023-11-19T01:46:22;20.80;64.20
42885;DHT22;28534;48.100;11.584;2023-11-19T01:47:24;20.90;64.20
42885;DHT22;28534;48.100;11.584;2023-11-19T01:48:24;20.90;64.40
42885;DHT22;28534;48.100;11.584;2023-11-19T01:49:26;20.90;64.40
42885;DHT22;28534;48.100;11.584;2023-11-19T01:50:27;20.90;64.40
42885;DHT22;28534;48.100;11.584;2023-11-19T01:51:29;20.80;64.20
42885;DHT22;28534;48.100;11.584;2023-11-19T01:52:30;20.90;64.30
42885;DHT22;28534;48.100;11.584;2023-11-19T01:53:31;20.90;64.20
42885;DHT22;28534;48.100;11.584;2023-11-19T01:54:34;20.80;64.20
42885;DHT22;28534;48.100;11.584;2023-11-19T01:55:35;20.80;64.10
42885;DHT22;28534;48.100;11.584;2023-11-19T01:56:37;20.90;64.10
42885;DHT22;28534;48.100;11.584;2023-11-19T01:57:40;20.90;64.20
42885;DHT22;28534;48.100;11.584;2023-11-19T01:58:42;20.90;64.20
42885;DHT22;28534;48.100;11.584;2023-11-19T01:59:44;20.90;64.20
42885;DHT22;28534;48.100;11.584;2023-11-19T02:00:45;20.90;64.20
42885;DHT22;28534;48.100;11.584;2023-11-19T02:01:46;20.90;64.20
42885;DHT22;28534;48.100;11.584;2023-11-19T02:02:48;20.90;64.40
42885;DHT22;28534;48.100;11.584;2023-11-19T02:03:48;20.90;64.20
42885;DHT22;28534;48.100;11.584;2023-11-19T02:04:50;20.90;64.20
42885;DHT22;28534;48.100;11.584;2023-11-19T02:05:51;20.90;64.20
42885;DHT22;28534;48.100;11.584;2023-11-19T02:06:53;20.90;64.20
42885;DHT22;28534;48.100;11.584;2023-11-19T02:07:56;20.80;64.20
42885;DHT22;28534;48.100;11.584;2023-11-19T02:08:58;20.90;64.20
42885;DHT22;28534;48.100;11.584;2023-11-19T02:09:59;20.80;64.10
42885;DHT22;28534;48.100;11.584;2023-11-19T02:11:02;20.90;64.20
42885;DHT22;28534;48.100;11.584;2023-11-19T02:12:03;20.80;64.20
42885;DHT22;28534;48.100;11.584;2023-11-19T02:13:05;20.80;64.20
42885;DHT22;28534;48.100;11.584;2023-11-19T02:14:06;20.80;64.20
42885;DHT22;28534;48.100;11.584;2023-11-19T02:15:08;20.80;64.20
42885;DHT22;28534;48.100;11.584;2023-11-19T02:16:09;20.80;64.10
42885;DHT22;28534;48.100;11.584;2023-11-19T02:17:24;20.80;64.20
42885;DHT22;28534;48.100;11.584;2023-11-19T02:18:26;20.90;64.20
42885;DHT22;28534;48.100;11.584;2023-11-19T02:19:28;20.80;64.10
42885;DHT22;28534;48.100;11.584;2023-11-19T02:20:29;20.90;64.20
42885;DHT22;28534;48.100;11.584;2023-11-19T02:21:31;20.90;64.20
42885;DHT22;28534;48.100;11.584;2023-11-19T02:22:31;20.80;64.10
42885;DHT22;28534;48.100;11.584;2023-11-19T02:23:33;20.80;64.20
42885;DHT22;28534;48.100;11.584;2023-11-19T02:24:33;20.80;64.20
42885;DHT22;28534;48.100;11.584;2023-11-19T02:25:37;20.80;64.10
42885;DHT22;28534;48.100;11.584;2023-11-19T02:26:39;20.80;64.00
42885;DHT22;28534;48.100;11.584;2023-11-19T02:27:49;20.90;64.10
42885;DHT22;28534;48.100;11.584;2023-11-19T02:28:52;20.90;64.10
42885;DHT22;28534;48.100;11.584;2023-11-19T02:29:53;20.80;64.00
42885;DHT22;28534;48.100;11.584;2023-11-19T02:30:54;20.80;64.10
42885;DHT22;28534;48.100;11.584;2023-11-19T02:31:55;20.80;64.20
42885;DHT22;28534;48.100;11.584;2023-11-19T02:32:57;20.80;64.20
42885;DHT22;28534;48.100;11.584;2023-11-19T02:33:59;20.80;64.20
42885;DHT22;28534;48.100;11.584;2023-11-19T02:35:01;20.80;64.20
42885;DHT22;28534;48.100;11.584;2023-11-19T02:36:02;20.80;64.10
42885;DHT22;28534;48.100;11.584;2023-11-19T02:37:03;20.80;64.20
42885;DHT22;28534;48.100;11.584;2023-11-19T02:38:06;20.70;64.00
42885;DHT22;28534;48.100;11.584;2023-11-19T02:39:07;20.80;64.20
42885;DHT22;28534;48.100;11.584;2023-11-19T02:40:13;20.80;64.20
42885;DHT22;28534;48.100;11.584;2023-11-19T02:41:14;20.80;64.10
42885;DHT22;28534;48.100;11.584;2023-11-19T02:42:15;20.80;64.20
42885;DHT22;28534;48.100;11.584;2023-11-19T02:43:17;20.80;64.20
42885;DHT22;28534;48.100;11.584;2023-11-19T02:44:19;20.80;64.20
42885;DHT22;28534;48.100;11.584;2023-11-19T02:45:20;20.80;64.00
42885;DHT22;28534;48.100;11.584;2023-11-19T02:46:22;20.80;64.00
42885;DHT22;28534;48.100;11.584;2023-11-19T02:47:23;20.80;64.10
42885;DHT22;28534;48.100;11.584;2023-11-19T02:48:25;20.80;64.00
42885;DHT22;28534;48.100;11.584;2023-11-19T02:49:25;20.80;64.00
42885;DHT22;28534;48.100;11.584;2023-11-19T02:50:27;20.80;64.00
42885;DHT22;28534;48.100;11.584;2023-11-19T02:51:28;20.80;64.10
42885;DHT22;28534;48.100;11.584;2023-11-19T02:52:30;20.80;64.10
42885;DHT22;28534;48.100;11.584;2023-11-19T02:53:35;20.80;64.20
42885;DHT22;28534;48.100;11.584;2023-11-19T02:54:37;20.80;65.00
42885;DHT22;28534;48.100;11.584;2023-11-19T02:55:38;20.80;64.20
42885;DHT22;28534;48.100;11.584;2023-11-19T02:56:42;20.80;64.10
42885;DHT22;28534;48.100;11.584;2023-11-19T02:57:42;20.80;64.00
42885;DHT22;28534;48.100;11.584;2023-11-19T02:58:49;20.90;64.10
42885;DHT22;28534;48.100;11.584;2023-11-19T02:59:51;20.80;64.00
42885;DHT22;28534;48.100;11.584;2023-11-19T03:00:52;20.80;64.00
42885;DHT22;28534;48.100;11.584;2023-11-19T03:01:57;20.80;64.10
42885;DHT22;28534;48.100;11.584;2023-11-19T03:03:00;20.80;64.00
42885;DHT22;28534;48.100;11.584;2023-11-19T03:04:05;20.70;63.90
42885;DHT22;28534;48.100;11.584;2023-11-19T03:05:10;20.80;64.00
42885;DHT22;28534;48.100;11.584;2023-11-19T03:06:11;20.80;64.10
42885;DHT22;28534;48.100;11.584;2023-11-19T03:07:12;20.70;64.00
42885;DHT22;28534;48.100;11.584;2023-11-19T03:08:14;20.80;64.00
42885;DHT22;28534;48.100;11.584;2023-11-19T03:09:16;20.80;63.90
42885;DHT22;28534;48.100;11.584;2023-11-19T03:10:16;20.80;64.00
42885;DHT22;28534;48.100;11.584;2023-11-19T03:11:19;20.80;64.10
42885;DHT22;28534;48.100;11.584;2023-11-19T03:12:19;20.80;64.00
42885;DHT22;28534;48.100;11.584;2023-11-19T03:13:21;20.80;63.90
42885;DHT22;28534;48.100;11.584;2023-11-19T03:14:23;20.80;63.90
42885;DHT22;28534;48.100;11.584;2023-11-19T03:15:25;20.80;64.10
42885;DHT22;28534;48.100;11.584;2023-11-19T03:16:26;20.80;64.00
42885;DHT22;28534;48.100;11.584;2023-11-19T03:17:27;20.80;64.10
42885;DHT22;28534;48.100;11.584;2023-11-19T03:18:28;20.80;64.00
42885;DHT22;28534;48.100;11.584;2023-11-19T03:19:29;20.80;64.00
42885;DHT22;28534;48.100;11.584;2023-11-19T03:20:30;20.80;64.10
42885;DHT22;28534;48.100;11.584;2023-11-19T03:21:31;20.80;64.00
42885;DHT22;28534;48.100;11.584;2023-11-19T03:22:32;20.80;64.20
42885;DHT22;28534;48.100;11.584;2023-11-19T03:23:34;20.80;64.10
42885;DHT22;28534;48.100;11.584;2023-11-19T03:24:36;20.80;64.00
42885;DHT22;28534;48.100;11.584;2023-11-19T03:25:36;20.70;63.90
42885;DHT22;28534;48.100;11.584;2023-11-19T03:26:37;20.70;64.00
42885;DHT22;28534;48.100;11.584;2023-11-19T03:27:39;20.70;64.60
42885;DHT22;28534;48.100;11.584;2023-11-19T03:28:42;20.80;63.90
42885;DHT22;28534;48.100;11.584;2023-11-19T03:29:45;20.80;63.90
42885;DHT22;28534;48.100;11.584;2023-11-19T03:30:45;20.80;63.90
42885;DHT22;28534;48.100;11.584;2023-11-19T03:31:47;20.80;63.90
42885;DHT22;28534;48.100;11.584;2023-11-19T03:32:47;20.70;63.80
42885;DHT22;28534;48.100;11.584;2023-11-19T03:33:49;20.70;63.90
42885;DHT22;28534;48.100;11.584;2023-11-19T03:34:50;20.80;64.00
42885;DHT22;28534;48.100;11.584;2023-11-19T03:35:51;20.80;64.00
42885;DHT22;28534;48.100;11.584;2023-11-19T03:36:52;20.80;64.00
42885;DHT22;28534;48.100;11.584;2023-11-19T03:37:53;20.80;63.90
42885;DHT22;28534;48.100;11.584;2023-11-19T03:38:54;20.80;63.90
42885;DHT22;28534;48.100;11.584;2023-11-19T03:39:56;20.70;63.90
42885;DHT22;28534;48.100;11.584;2023-11-19T03:41:00;20.80;63.90
42885;DHT22;28534;48.100;11.584;2023-11-19T03:42:01;20.80;64.00
42885;DHT22;28534;48.100;11.584;2023-11-19T03:43:03;20.70;63.90
42885;DHT22;28534;48.100;11.584;2023-11-19T03:44:05;20.70;63.90
42885;DHT22;28534;48.100;11.584;2023-11-19T03:45:08;20.70;64.00
42885;DHT22;28534;48.100;11.584;2023-11-19T03:46:16;20.80;64.10
42885;DHT22;28534;48.100;11.584;2023-11-19T03:47:17;20.70;64.00
42885;DHT22;28534;48.100;11.584;2023-11-19T03:48:17;20.80;63.90
42885;DHT22;28534;48.100;11.584;2023-11-19T03:49:19;20.80;63.90
42885;DHT22;28534;48.100;11.584;2023-11-19T03:50:20;20.80;64.00
42885;DHT22;28534;48.100;11.584;2023-11-19T03:51:21;20.80;64.70
42885;DHT22;28534;48.100;11.584;2023-11-19T03:52:22;20.80;63.90
42885;DHT22;28534;48.100;11.584;2023-11-19T03:53:23;20.80;63.90
42885;DHT22;28534;48.100;11.584;2023-11-19T03:54:24;20.80;63.90
42885;DHT22;28534;48.100;11.584;2023-11-19T03:55:28;20.70;63.90
42885;DHT22;28534;48.100;11.584;2023-11-19T03:56:29;20.80;63.80
42885;DHT22;28534;48.100;11.584;2023-11-19T03:57:31;20.70;63.70
42885;DHT22;28534;48.100;11.584;2023-11-19T03:58:33;20.80;63.70
42885;DHT22;28534;48.100;11.584;2023-11-19T03:59:34;20.80;63.80
42885;DHT22;28534;48.100;11.584;2023-11-19T04:00:36;20.80;63.80
42885;DHT22;28534;48.100;11.584;2023-11-19T04:01:37;20.80;63.70
42885;DHT22;28534;48.100;11.584;2023-11-19T04:02:38;20.80;63.90
42885;DHT22;28534;48.100;11.584;2023-11-19T04:03:40;20.70;63.90
42885;DHT22;28534;48.100;11.584;2023-11-19T04:04:40;20.70;63.90
42885;DHT22;28534;48.100;11.584;2023-11-19T04:05:41;20.80;64.00
42885;DHT22;28534;48.100;11.584;2023-11-19T04:06:42;20.80;64.00
42885;DHT22;28534;48.100;11.584;2023-11-19T04:07:43;20.70;64.10
42885;DHT22;28534;48.100;11.584;2023-11-19T04:08:45;20.70;64.10
42885;DHT22;28534;48.100;11.584;2023-11-19T04:09:45;20.70;63.90
42885;DHT22;28534;48.100;11.584;2023-11-19T04:10:47;20.80;63.70
42885;DHT22;28534;48.100;11.584;2023-11-19T04:11:48;20.80;63.40
42885;DHT22;28534;48.100;11.584;2023-11-19T04:12:49;20.80;63.30
42885;DHT22;28534;48.100;11.584;2023-11-19T04:13:50;20.90;63.10
42885;DHT22;28534;48.100;11.584;2023-11-19T04:14:52;21.00;63.00
42885;DHT22;28534;48.100;11.584;2023-11-19T04:15:54;21.10;62.80
42885;DHT22;28534;48.100;11.584;2023-11-19T04:16:55;21.10;62.60
42885;DHT22;28534;48.100;11.584;2023-11-19T04:17:56;21.20;62.40
42885;DHT22;28534;48.100;11.584;2023-11-19T04:18:57;21.30;62.20
42885;DHT22;28534;48.100;11.584;2023-11-19T04:19:58;21.30;62.20
42885;DHT22;28534;48.100;11.584;2023-11-19T04:21:00;21.30;62.10
42885;DHT22;28534;48.100;11.584;2023-11-19T04:22:00;21.30;62.10
42885;DHT22;28534;48.100;11.584;2023-11-19T04:23:02;21.40;61.80
42885;DHT22;28534;48.100;11.584;2023-11-19T04:24:03;21.40;61.80
42885;DHT22;28534;48.100;11.584;2023-11-19T04:25:05;21.40;61.90
42885;DHT22;28534;48.100;11.584;2023-11-19T04:26:05;21.30;61.90
42885;DHT22;28534;48.100;11.584;2023-11-19T04:27:07;21.40;62.00
42885;DHT22;28534;48.100;11.584;2023-11-19T04:28:08;21.40;62.00
42885;DHT22;28534;48.100;11.584;2023-11-19T04:29:09;21.40;61.90
42885;DHT22;28534;48.100;11.584;2023-11-19T04:30:11;21.40;61.80
42885;DHT22;28534;48.100;11.584;2023-11-19T04:31:15;21.40;61.80
42885;DHT22;28534;48.100;11.584;2023-11-19T04:32:16;21.40;62.60
42885;DHT22;28534;48.100;11.584;2023-11-19T04:33:18;21.40;61.90
42885;DHT22;28534;48.100;11.584;2023-11-19T04:34:18;21.40;62.10
42885;DHT22;28534;48.100;11.584;2023-11-19T04:35:19;21.40;62.10
42885;DHT22;28534;48.100;11.584;2023-11-19T04:36:21;21.40;62.20
42885;DHT22;28534;48.100;11.584;2023-11-19T04:37:24;21.40;62.20
42885;DHT22;28534;48.100;11.584;2023-11-19T04:38:26;21.40;62.10
42885;DHT22;28534;48.100;11.584;2023-11-19T04:39:27;21.40;61.90
42885;DHT22;28534;48.100;11.584;2023-11-19T04:40:27;21.40;61.80
42885;DHT22;28534;48.100;11.584;2023-11-19T04:41:29;21.40;61.90
42885;DHT22;28534;48.100;11.584;2023-11-19T04:42:30;21.40;61.90
42885;DHT22;28534;48.100;11.584;2023-11-19T04:43:32;21.40;61.90
42885;DHT22;28534;48.100;11.584;2023-11-19T04:44:33;21.50;61.80
42885;DHT22;28534;48.100;11.584;2023-11-19T04:45:34;21.60;61.60
42885;DHT22;28534;48.100;11.584;2023-11-19T04:46:36;21.60;61.50
42885;DHT22;28534;48.100;11.584;2023-11-19T04:47:38;21.60;61.50
42885;DHT22;28534;48.100;11.584;2023-11-19T04:48:39;21.60;61.30
42885;DHT22;28534;48.100;11.584;2023-11-19T04:49:40;21.70;61.30
42885;DHT22;28534;48.100;11.584;2023-11-19T04:50:43;21.70;61.00
42885;DHT22;28534;48.100;11.584;2023-11-19T04:51:45;21.70;60.90
42885;DHT22;28534;48.100;11.584;2023-11-19T04:52:47;21.80;60.70
42885;DHT22;28534;48.100;11.584;2023-11-19T04:53:48;21.80;60.80
42885;DHT22;28534;48.100;11.584;2023-11-19T04:54:49;21.80;60.70
42885;DHT22;28534;48.100;11.584;2023-11-19T04:55:51;21.90;60.50
42885;DHT22;28534;48.100;11.584;2023-11-19T04:56:51;21.90;60.40
42885;DHT22;28534;48.100;11.584;2023-11-19T04:57:53;21.90;60.20
42885;DHT22;28534;48.100;11.584;2023-11-19T04:58:54;21.90;60.40
42885;DHT22;28534;48.100;11.584;2023-11-19T04:59:55;21.90;60.50
42885;DHT22;28534;48.100;11.584;2023-11-19T05:00:57;21.90;60.50
42885;DHT22;28534;48.100;11.584;2023-11-19T05:01:58;22.00;60.50
42885;DHT22;28534;48.100;11.584;2023-11-19T05:03:00;21.80;60.30
42885;DHT22;28534;48.100;11.584;2023-11-19T05:04:01;21.80;60.50
42885;DHT22;28534;48.100;11.584;2023-11-19T05:05:02;21.90;60.50
42885;DHT22;28534;48.100;11.584;2023-11-19T05:06:05;21.90;60.70
42885;DHT22;28534;48.100;11.584;2023-11-19T05:07:06;21.90;60.70
42885;DHT22;28534;48.100;11.584;2023-11-19T05:08:07;21.90;60.70
42885;DHT22;28534;48.100;11.584;2023-11-19T05:09:08;21.90;60.60
42885;DHT22;28534;48.100;11.584;2023-11-19T05:10:12;22.00;60.40
42885;DHT22;28534;48.100;11.584;2023-11-19T05:11:13;22.10;60.20
42885;DHT22;28534;48.100;11.584;2023-11-19T05:12:18;22.10;60.10
42885;DHT22;28534;48.100;11.584;2023-11-19T05:13:18;22.10;60.10
42885;DHT22;28534;48.100;11.584;2023-11-19T05:14:20;22.10;60.00
42885;DHT22;28534;48.100;11.584;2023-11-19T05:15:22;22.10;60.00
42885;DHT22;28534;48.100;11.584;2023-11-19T05:16:24;22.10;60.00
42885;DHT22;28534;48.100;11.584;2023-11-19T05:17:26;22.20;59.90
42885;DHT22;28534;48.100;11.584;2023-11-19T05:18:27;22.20;59.80
42885;DHT22;28534;48.100;11.584;2023-11-19T05:19:28;22.30;59.80
42885;DHT22;28534;48.100;11.584;2023-11-19T05:20:29;22.30;59.70
42885;DHT22;28534;48.100;11.584;2023-11-19T05:21:30;22.30;59.70
42885;DHT22;28534;48.100;11.584;2023-11-19T05:22:31;22.20;59.70
42885;DHT22;28534;48.100;11.584;2023-11-19T05:23:32;22.30;59.80
42885;DHT22;28534;48.100;11.584;2023-11-19T05:24:34;22.30;59.90
42885;DHT22;28534;48.100;11.584;2023-11-19T05:25:36;22.30;59.80
42885;DHT22;28534;48.100;11.584;2023-11-19T05:26:38;22.30;59.70
42885;DHT22;28534;48.100;11.584;2023-11-19T05:27:38;22.30;59.70
42885;DHT22;28534;48.100;11.584;2023-11-19T05:28:40;22.30;59.70
42885;DHT22;28534;48.100;11.584;2023-11-19T05:29:40;22.30;59.80
42885;DHT22;28534;48.100;11.584;2023-11-19T05:30:43;22.20;59.80
42885;DHT22;28534;48.100;11.584;2023-11-19T05:31:44;22.20;59.80
42885;DHT22;28534;48.100;11.584;2023-11-19T05:32:47;22.30;59.80
42885;DHT22;28534;48.100;11.584;2023-11-19T05:33:47;22.30;59.80
42885;DHT22;28534;48.100;11.584;2023-11-19T05:34:49;22.30;59.80
42885;DHT22;28534;48.100;11.584;2023-11-19T05:35:49;22.30;59.80
42885;DHT22;28534;48.100;11.584;2023-11-19T05:36:51;22.30;59.80
42885;DHT22;28534;48.100;11.584;2023-11-19T05:37:52;22.30;59.80
42885;DHT22;28534;48.100;11.584;2023-11-19T05:38:53;22.30;59.70
42885;DHT22;28534;48.100;11.584;2023-11-19T05:39:54;22.30;59.80
42885;DHT22;28534;48.100;11.584;2023-11-19T05:40:56;22.30;59.80
42885;DHT22;28534;48.100;11.584;2023-11-19T05:41:56;22.30;59.80
42885;DHT22;28534;48.100;11.584;2023-11-19T05:42:58;22.30;59.80
42885;DHT22;28534;48.100;11.584;2023-11-19T05:43:58;22.30;59.80
42885;DHT22;28534;48.100;11.584;2023-11-19T05:45:00;22.40;59.80
42885;DHT22;28534;48.100;11.584;2023-11-19T05:46:01;22.40;59.70
42885;DHT22;28534;48.100;11.584;2023-11-19T05:47:03;22.40;59.70
42885;DHT22;28534;48.100;11.584;2023-11-19T05:48:05;22.30;59.70
42885;DHT22;28534;48.100;11.584;2023-11-19T05:49:07;22.40;59.70
42885;DHT22;28534;48.100;11.584;2023-11-19T05:50:08;22.40;59.70
42885;DHT22;28534;48.100;11.584;2023-11-19T05:51:10;22.40;59.70
42885;DHT22;28534;48.100;11.584;2023-11-19T05:52:11;22.40;59.70
42885;DHT22;28534;48.100;11.584;2023-11-19T05:53:12;22.40;59.60
42885;DHT22;28534;48.100;11.584;2023-11-19T05:54:15;22.40;59.60
42885;DHT22;28534;48.100;11.584;2023-11-19T05:55:16;22.60;59.60
42885;DHT22;28534;48.100;11.584;2023-11-19T05:56:17;22.40;59.50
42885;DHT22;28534;48.100;11.584;2023-11-19T05:57:21;22.50;59.60
42885;DHT22;28534;48.100;11.584;2023-11-19T05:58:25;22.40;59.50
42885;DHT22;28534;48.100;11.584;2023-11-19T05:59:29;22.40;59.60
42885;DHT22;28534;48.100;11.584;2023-11-19T06:00:30;22.40;59.60
42885;DHT22;28534;48.100;11.584;2023-11-19T06:01:32;22.40;59.60
42885;DHT22;28534;48.100;11.584;2023-11-19T06:02:32;22.40;59.50
42885;DHT22;28534;48.100;11.584;2023-11-19T06:03:35;22.40;59.60
42885;DHT22;28534;48.100;11.584;2023-11-19T06:04:36;22.40;59.60
42885;DHT22;28534;48.100;11.584;2023-11-19T06:05:38;22.40;59.60
42885;DHT22;28534;48.100;11.584;2023-11-19T06:06:39;22.50;59.60
42885;DHT22;28534;48.100;11.584;2023-11-19T06:07:40;22.50;59.60
42885;DHT22;28534;48.100;11.584;2023-11-19T06:08:41;22.40;59.60
42885;DHT22;28534;48.100;11.584;2023-11-19T06:09:43;22.40;59.60
42885;DHT22;28534;48.100;11.584;2023-11-19T06:10:44;22.40;59.70
42885;DHT22;28534;48.100;11.584;2023-11-19T06:11:46;22.40;59.60
42885;DHT22;28534;48.100;11.584;2023-11-19T06:12:49;22.40;59.60
42885;DHT22;28534;48.100;11.584;2023-11-19T06:13:56;22.40;59.60
42885;DHT22;28534;48.100;11.584;2023-11-19T06:14:57;22.40;59.60
42885;DHT22;28534;48.100;11.584;2023-11-19T06:15:58;22.40;59.60
42885;DHT22;28534;48.100;11.584;2023-11-19T06:16:59;22.40;59.60
42885;DHT22;28534;48.100;11.584;2023-11-19T06:18:00;22.50;59.60
42885;DHT22;28534;48.100;11.584;2023-11-19T06:19:03;22.50;59.60
42885;DHT22;28534;48.100;11.584;2023-11-19T06:20:05;22.40;60.20
42885;DHT22;28534;48.100;11.584;2023-11-19T06:21:07;22.40;59.60
42885;DHT22;28534;48.100;11.584;2023-11-19T06:22:08;22.40;59.60
42885;DHT22;28534;48.100;11.584;2023-11-19T06:23:09;22.40;59.50